Data for 11/14/2006

Time Sea-Level Adjusted Pressure Absolute Pressure Temperature Relative Humidity Dew Point   
(mb) (inHg) (mb) (inHg) (C) (F) (%) (C) (F)
00:05 1000 29.53 829 24.48 3.1 37.5 38 -9.9 14.2
00:10 1000 29.53 829 24.48 3 37.3 37 -10.4 13.3
00:15 1000 29.53 829 24.48 3.2 37.7 38 -9.9 14.1
00:20 999 29.5 829 24.48 3.1 37.5 38 -9.8 14.3
00:25 999 29.5 828 24.45 2.7 36.8 42 -9 15.8
00:30 999 29.5 828 24.45 2.2 36 43 -9.2 15.4
00:35 999 29.5 828 24.45 2.3 36.1 43 -9.1 15.7
00:40 999 29.5 828 24.45 2.3 36.1 43 -9 15.8
00:45 999 29.5 828 24.45 2.1 35.8 44 -8.8 16.1
00:50 999 29.5 828 24.45 2.5 36.5 45 -8.2 17.2
00:55 999 29.5 828 24.45 3 37.4 45 -7.7 18.1
01:00 999 29.5 828 24.45 3.2 37.8 47 -7.1 19.2
01:05 999 29.5 828 24.45 3.1 37.5 51 -6 21.2
01:10 999 29.5 828 24.45 3 37.4 52 -6 21.1
01:15 999 29.5 828 24.45 3.2 37.7 50 -6.1 21
01:20 999 29.5 828 24.45 3.2 37.7 53 -5.6 21.9
01:25 999 29.5 828 24.45 3.2 37.7 55 -4.9 23.2
01:30 999 29.5 828 24.45 3 37.4 58 -4.4 24.1
01:35 999 29.5 828 24.45 2.6 36.7 60 -4.3 24.3
01:40 999 29.5 828 24.45 2.4 36.4 62 -4.1 24.7
01:45 999 29.5 828 24.45 2.2 36 64 -4 24.9
01:50 999 29.5 828 24.45 2.2 35.9 64 -4 24.9
01:55 999 29.5 828 24.45 2.1 35.8 65 -3.8 25.1
02:00 999 29.5 828 24.45 2 35.7 65 -3.9 25
02:05 999 29.5 828 24.45 2.2 36 63 -4 24.8
02:10 999 29.5 828 24.45 2.4 36.3 63 -4 24.9
02:15 999 29.5 828 24.45 2.4 36.4 63 -3.9 25
02:20 999 29.5 828 24.45 2.3 36.1 62 -4.2 24.5
02:25 999 29.5 828 24.45 2 35.6 63 -4.3 24.3
02:30 999 29.5 828 24.45 1.9 35.5 63 -4.3 24.2
02:35 999 29.5 828 24.45 1.8 35.3 64 -4.3 24.3
02:40 999 29.5 828 24.45 1.8 35.2 65 -4.2 24.4
02:45 999 29.5 828 24.45 1.8 35.2 65 -4 24.7
02:50 999 29.5 829 24.48 1.9 35.4 66 -3.8 25.1
02:55 999 29.5 829 24.48 2 35.6 65 -3.8 25.1
03:00 999 29.5 829 24.48 2.1 35.8 64 -4.1 24.7
03:05 1000 29.53 829 24.48 2.2 35.9 62 -4.3 24.3
03:10 1000 29.53 829 24.48 2.4 36.3 62 -4.2 24.4
03:15 1000 29.53 829 24.48 2.6 36.6 61 -4.2 24.4
03:20 1000 29.53 829 24.48 2.6 36.6 62 -4 24.7
03:25 1000 29.53 829 24.48 2.6 36.6 63 -3.9 25.1
03:30 1000 29.53 829 24.48 2.5 36.5 62 -4 24.7
03:35 1000 29.53 830 24.51 2.4 36.3 60 -4.6 23.6
03:40 1001 29.56 830 24.51 2.1 35.8 62 -4.5 24
03:45 1001 29.56 830 24.51 1.7 35.1 64 -4.4 24.1
03:50 1001 29.56 830 24.51 1.2 34.2 68 -4 24.8
03:55 1001 29.56 830 24.51 1 33.7 70 -3.9 25
04:00 1001 29.56 830 24.51 1 33.7 71 -3.7 25.4
04:05 1001 29.56 830 24.51 1 33.7 71 -3.6 25.5
04:10 1001 29.56 831 24.54 1 33.7 73 -3.4 25.8
04:15 1002 29.59 831 24.54 1.1 34 72 -3.4 25.9
04:20 1002 29.59 831 24.54 1.1 34.1 72 -3.3 26
04:25 1001 29.56 831 24.54 1.1 34 73 -3.2 26.2
04:30 1002 29.59 831 24.54 1.1 34.1 73 -3.2 26.2
04:35 1002 29.59 831 24.54 1.2 34.1 73 -3.1 26.3
04:40 1002 29.59 831 24.54 1.4 34.4 72 -3.1 26.4
04:45 1002 29.59 831 24.54 1.4 34.6 72 -3 26.5
04:50 1002 29.59 831 24.54 1.2 34.1 74 -3 26.6
04:55 1002 29.59 832 24.57 0.7 33.3 75 -3.2 26.3
05:00 1003 29.62 832 24.57 0.5 33 75 -3.4 25.9
05:05 1003 29.62 832 24.57 0.5 33 74 -3.6 25.6
05:10 1003 29.62 832 24.57 0.6 33.1 74 -3.5 25.7
05:15 1003 29.62 832 24.57 0.7 33.3 73 -3.6 25.5
05:20 1003 29.62 833 24.6 0.9 33.6 72 -3.5 25.6
05:25 1003 29.62 833 24.6 1 33.9 72 -3.5 25.8
05:30 1004 29.65 833 24.6 1.2 34.1 72 -3.4 25.9
05:35 1004 29.65 833 24.6 1.3 34.3 71 -3.4 25.8
05:40 1004 29.65 833 24.6 1.4 34.6 70 -3.4 26
05:45 1004 29.65 833 24.6 1.4 34.5 70 -3.4 25.9
05:50 1004 29.65 833 24.6 1.2 34.2 71 -3.4 25.9
05:55 1004 29.65 833 24.6 1 33.9 73 -3.3 26.1
06:00 1004 29.65 833 24.6 0.8 33.5 73 -3.4 25.9
06:05 1004 29.65 833 24.6 1 33.8 72 -3.4 25.8
06:10 1004 29.65 833 24.6 0.9 33.6 74 -3.3 26.1
06:15 1004 29.65 833 24.6 0.6 33.1 74 -3.4 25.8
06:20 1004 29.65 833 24.6 0.6 33.2 73 -3.6 25.5
06:25 1004 29.65 833 24.6 0.7 33.2 73 -3.6 25.6
06:30 1004 29.65 834 24.63 0.7 33.3 73 -3.7 25.4
06:35 1004 29.65 834 24.63 0.8 33.4 72 -3.6 25.5
06:40 1005 29.68 834 24.63 0.7 33.2 73 -3.6 25.5
06:45 1005 29.68 834 24.63 0.8 33.4 72 -3.7 25.3
06:50 1005 29.68 834 24.63 1 33.7 70 -3.8 25.1
06:55 1005 29.68 834 24.63 1.1 34.1 68 -4.1 24.6
07:00 1005 29.68 835 24.66 1.3 34.4 67 -4 24.7
07:05 1005 29.68 835 24.66 1.6 34.8 66 -4 24.7
07:10 1005 29.68 835 24.66 1.6 35 67 -3.9 25
07:15 1006 29.71 835 24.66 1.6 34.9 65 -4.3 24.2
07:20 1006 29.71 835 24.66 1.7 35.1 65 -4.2 24.4
07:25 1006 29.71 835 24.66 1.7 35 67 -3.8 25.2
07:30 1006 29.71 836 24.69 1.5 34.7 70 -3.5 25.7
07:35 1007 29.74 836 24.69 1.2 34.1 74 -3 26.6
07:40 1007 29.74 836 24.69 0.7 33.3 76 -3.1 26.5
07:45 1007 29.74 836 24.69 0.5 32.9 77 -3.1 26.4
07:50 1007 29.74 836 24.69 0.3 32.6 78 -3.2 26.3
07:55 1007 29.74 837 24.72 0.1 32.2 79 -3.1 26.4
08:00 1008 29.77 837 24.72 0.1 32.1 80 -3 26.7
08:05 1008 29.77 837 24.72 -0 32 81 -2.9 26.8
08:10 1008 29.77 837 24.72 -0 32 82 -2.7 27.1
08:15 1008 29.77 838 24.75 -0.2 31.7 83 -2.7 27.1
08:20 1009 29.8 838 24.75 -0.3 31.5 84 -2.6 27.3
08:25 1009 29.8 838 24.75 -0.4 31.3 84 -2.7 27.1
08:30 1009 29.8 838 24.75 -0.3 31.4 84 -2.7 27.1
08:35 1009 29.8 838 24.75 -0.3 31.4 83 -2.8 26.9
08:40 1009 29.8 839 24.78 -0.2 31.7 82 -2.9 26.7
08:45 1009 29.8 839 24.78 -0.1 31.9 79 -3.3 26.1
08:50 1010 29.83 839 24.78 0.2 32.4 78 -3.2 26.2
08:55 1010 29.83 839 24.78 0.3 32.5 78 -3.2 26.2
09:00 1010 29.83 839 24.78 0.4 32.7 77 -3.2 26.3
09:05 1010 29.83 839 24.78 0.2 32.4 80 -2.8 27
09:10 1010 29.83 839 24.78 0.2 32.3 79 -3.1 26.5
09:15 1010 29.83 839 24.78 0.2 32.3 79 -3 26.6
09:20 1010 29.83 840 24.81 0.2 32.4 76 -3.6 25.5
09:25 1011 29.85 840 24.81 0.5 32.9 73 -3.7 25.3
09:30 1011 29.85 840 24.81 0.5 33 74 -3.5 25.7
09:35 1011 29.85 840 24.81 0.3 32.5 74 -3.9 25
09:40 1011 29.85 840 24.81 0.2 32.3 72 -4.2 24.4
09:45 1011 29.85 840 24.81 0.2 32.4 71 -4.4 24
09:50 1011 29.85 841 24.83 0.2 32.4 72 -4.3 24.2
09:55 1012 29.88 841 24.83 0.2 32.4 71 -4.5 23.9
10:00 1012 29.88 841 24.83 0.3 32.6 69 -4.7 23.5
10:05 1012 29.88 841 24.83 0.4 32.7 67 -5 22.9
10:10 1012 29.88 841 24.83 0.3 32.6 66 -5.3 22.4
10:15 1012 29.88 842 24.86 0.5 33 64 -5.5 22.1
10:20 1012 29.88 842 24.86 0.7 33.3 63 -5.5 22
10:25 1013 29.91 842 24.86 1.1 34 59 -5.9 21.4
10:30 1013 29.91 842 24.86 1.3 34.4 60 -5.5 22.1
10:35 1013 29.91 842 24.86 1.4 34.5 61 -5.3 22.5
10:40 1013 29.91 842 24.86 1.4 34.6 59 -5.8 21.6
10:45 1013 29.91 842 24.86 1.2 34.2 58 -6.1 20.9
10:50 1013 29.91 842 24.86 1.2 34.1 57 -6.4 20.5
10:55 1013 29.91 842 24.86 1.1 34 59 -6.1 21.1
11:00 1013 29.91 843 24.89 1.1 34 57 -6.4 20.5
11:05 1013 29.91 843 24.89 1.1 33.9 54 -7.2 19.1
11:10 1013 29.91 843 24.89 1.2 34.2 50 -8.2 17.3
11:15 1013 29.91 843 24.89 1.3 34.3 48 -8.6 16.5
11:20 1014 29.94 843 24.89 1.2 34.2 48 -8.6 16.4
11:25 1014 29.94 843 24.89 1.3 34.4 48 -8.6 16.5
11:30 1014 29.94 843 24.89 1.3 34.4 47 -8.9 16
11:35 1014 29.94 843 24.89 1.3 34.4 47 -8.9 16
11:40 1014 29.94 843 24.89 1.3 34.4 46 -9 15.8
11:45 1014 29.94 843 24.89 1.4 34.4 46 -9.1 15.7
11:50 1014 29.94 843 24.89 1.6 34.9 43 -9.6 14.7
11:55 1014 29.94 843 24.89 1.7 35 43 -9.5 14.8
12:00 1014 29.94 843 24.89 1.7 35.1 43 -9.6 14.7
12:05 1014 29.94 844 24.92 1.8 35.2 42 -9.7 14.6
12:10 1014 29.94 844 24.92 1.9 35.4 41 -9.9 14.2
12:15 1015 29.97 844 24.92 1.9 35.5 42 -9.6 14.8
12:20 1015 29.97 844 24.92 2 35.6 43 -9.2 15.4
12:25 1015 29.97 844 24.92 2 35.7 41 -9.8 14.4
12:30 1015 29.97 844 24.92 1.9 35.5 42 -9.6 14.7
12:35 1015 29.97 844 24.92 2 35.6 40 -10.3 13.5
12:40 1015 29.97 844 24.92 2 35.6 40 -10.3 13.4
12:45 1015 29.97 844 24.92 2 35.6 39 -10.4 13.3
12:50 1015 29.97 844 24.92 2 35.5 39 -10.6 12.9
12:55 1015 29.97 844 24.92 2.1 35.7 39 -10.4 13.2
13:00 1015 29.97 844 24.92 2.3 36.1 38 -10.6 12.9
13:05 1015 29.97 844 24.92 2.4 36.3 37 -10.9 12.3
13:10 1015 29.97 844 24.92 2.4 36.4 37 -11 12.3
13:15 1015 29.97 844 24.92 2.4 36.3 38 -10.7 12.8
13:20 1015 29.97 844 24.92 2.4 36.3 37 -10.8 12.5
13:25 1015 29.97 845 24.95 2.4 36.3 35 -11.5 11.3
13:30 1015 29.97 845 24.95 2.3 36.2 34 -12.2 10.1
13:35 1016 30 845 24.95 2.3 36.1 33 -12.4 9.7
13:40 1016 30 845 24.95 2.4 36.3 33 -12.3 9.8
13:45 1016 30 845 24.95 2.4 36.3 33 -12.3 9.8
13:50 1016 30 845 24.95 2.3 36.2 33 -12.2 10
13:55 1016 30 845 24.95 2.4 36.3 33 -12.4 9.7
14:00 1016 30 845 24.95 2.3 36.2 33 -12.2 10
14:05 1016 30 845 24.95 2.3 36.2 33 -12.4 9.6
14:10 1016 30 846 24.98 2.3 36.2 32 -12.7 9.2
14:15 1016 30 846 24.98 2.3 36.2 32 -12.7 9.1
14:20 1017 30.03 846 24.98 2.4 36.3 32 -12.7 9.2
14:25 1017 30.03 846 24.98 2.4 36.4 31 -13 8.6
14:30 1017 30.03 846 24.98 2.4 36.4 32 -12.7 9.2
14:35 1017 30.03 846 24.98 2.5 36.5 32 -12.7 9.1
14:40 1017 30.03 846 24.98 2.5 36.5 32 -12.4 9.6
14:45 1017 30.03 846 24.98 2.4 36.3 33 -12.3 9.9
14:50 1017 30.03 846 24.98 2.3 36.1 33 -12.5 9.4
14:55 1017 30.03 846 24.98 2.4 36.3 33 -12.3 9.8
15:00 1017 30.03 846 24.98 2.8 37.1 33 -12.1 10.2
15:05 1017 30.03 846 24.98 2.6 36.7 33 -12.2 10
15:10 1017 30.03 847 25.01 2.9 37.2 32 -12.3 9.8
15:15 1017 30.03 847 25.01 3.3 38 31 -12.2 10
15:20 1017 30.03 847 25.01 3.5 38.3 31 -12.2 10
15:25 1017 30.03 847 25.01 3.7 38.6 30 -12.2 10.1
15:30 1018 30.06 847 25.01 3.8 38.8 30 -12.3 9.9
15:35 1018 30.06 847 25.01 4 39.2 29 -12.4 9.7
15:40 1018 30.06 847 25.01 4.1 39.3 29 -12.6 9.4
15:45 1018 30.06 847 25.01 4 39.1 29 -12.7 9.2
15:50 1018 30.06 847 25.01 3.9 39.1 29 -12.5 9.4
15:55 1018 30.06 848 25.04 3.9 39.1 30 -12.4 9.8
16:00 1018 30.06 848 25.04 3.9 39 30 -12.3 9.9
16:05 1018 30.06 848 25.04 3.9 38.9 29 -12.6 9.3
16:10 1018 30.06 848 25.04 3.6 38.5 29 -13.1 8.5
16:15 1018 30.06 848 25.04 2.9 37.2 30 -13 8.6
16:20 1019 30.09 848 25.04 2.5 36.5 31 -13.1 8.3
16:25 1019 30.09 848 25.04 2.3 36.2 30 -13.4 7.9
16:30 1019 30.09 848 25.04 2.2 36 31 -13.3 8
16:35 1019 30.09 848 25.04 2.1 35.9 32 -13.1 8.4
16:40 1019 30.09 848 25.04 2.1 35.7 32 -13 8.6
16:45 1019 30.09 848 25.04 1.9 35.4 33 -13 8.7
16:50 1019 30.09 848 25.04 1.7 35 33 -12.9 8.9
16:55 1019 30.09 848 25.04 1.3 34.3 34 -12.9 8.7
17:00 1019 30.09 848 25.04 1.1 33.9 35 -12.9 8.7
17:05 1019 30.09 848 25.04 0.9 33.7 35 -13 8.7
17:10 1019 30.09 848 25.04 0.8 33.5 34 -13.2 8.3
17:15 1019 30.09 848 25.04 0.9 33.7 34 -13.2 8.3
17:20 1019 30.09 848 25.04 0.8 33.5 35 -13.1 8.4
17:25 1019 30.09 848 25.04 0.6 33.1 35 -13.1 8.5
17:30 1019 30.09 848 25.04 0.5 32.9 36 -13 8.6
17:35 1019 30.09 849 25.07 0.4 32.8 37 -12.8 9
17:40 1019 30.09 849 25.07 0.4 32.7 36 -13 8.7
17:45 1019 30.09 849 25.07 0.4 32.7 36 -12.9 8.8
17:50 1020 30.12 849 25.07 0.3 32.5 38 -12.5 9.4
17:55 1020 30.12 849 25.07 0.1 32.1 38 -12.6 9.3
18:00 1020 30.12 849 25.07 0 32 38 -12.7 9.1
18:05 1020 30.12 849 25.07 -0 32 39 -12.5 9.5
18:10 1020 30.12 849 25.07 -0.1 31.9 40 -12.3 9.9
18:15 1020 30.12 849 25.07 -0.3 31.5 40 -12.2 10.1
18:20 1020 30.12 849 25.07 -0.5 31 44 -11.5 11.3
18:25 1020 30.12 849 25.07 -1.5 29.4 48 -11.2 11.9
18:30 1020 30.12 849 25.07 -1.7 28.9 48 -11.3 11.6
18:35 1020 30.12 850 25.1 -1.6 29.1 46 -11.7 10.9
18:40 1020 30.12 850 25.1 -1.2 29.8 45 -11.7 10.9
18:45 1020 30.12 850 25.1 -1 30.1 44 -11.9 10.6
18:50 1020 30.12 850 25.1 -1 30.3 44 -11.8 10.8
18:55 1020 30.12 850 25.1 -1 30.1 44 -11.8 10.8
19:00 1021 30.15 850 25.1 -1 30.2 44 -11.7 11
19:05 1021 30.15 850 25.1 -0.9 30.4 44 -11.7 10.9
19:10 1021 30.15 850 25.1 -1.1 30 47 -11.1 12.1
19:15 1021 30.15 850 25.1 -1.4 29.6 47 -11.4 11.5
19:20 1021 30.15 850 25.1 -1.3 29.6 45 -11.8 10.8
19:25 1021 30.15 850 25.1 -0.8 30.6 44 -11.6 11.1
19:30 1021 30.15 851 25.13 -0.4 31.2 41 -12 10.3
19:35 1021 30.15 851 25.13 -0.3 31.5 41 -12.1 10.2
19:40 1021 30.15 851 25.13 -0.3 31.5 41 -11.9 10.6
19:45 1022 30.18 851 25.13 -0.4 31.3 43 -11.6 11.2
19:50 1022 30.18 851 25.13 -0.1 31.7 41 -11.8 10.7
19:55 1022 30.18 851 25.13 -0 31.9 41 -11.7 11
20:00 1021 30.15 851 25.13 -0 31.9 41 -11.8 10.8
20:05 1021 30.15 851 25.13 -0.2 31.7 42 -11.7 10.9
20:10 1021 30.15 851 25.13 -0.3 31.5 42 -11.6 11.2
20:15 1021 30.15 851 25.13 -0.5 31.2 43 -11.7 11
20:20 1022 30.18 851 25.13 -0.6 30.9 43 -11.6 11.1
20:25 1022 30.18 851 25.13 -0.5 31.1 43 -11.7 10.9
20:30 1022 30.18 851 25.13 -0.8 30.5 46 -10.9 12.3
20:35 1022 30.18 851 25.13 -1.2 29.8 48 -10.9 12.4
20:40 1022 30.18 851 25.13 -1.6 29.1 47 -11.4 11.4
20:45 1022 30.18 851 25.13 -1.2 29.9 46 -11.3 11.7
20:50 1022 30.18 851 25.13 -1 30.1 46 -11.1 12
20:55 1022 30.18 851 25.13 -0.9 30.4 45 -11.3 11.7
21:00 1022 30.18 851 25.13 -0.9 30.4 46 -11.2 11.9
21:05 1022 30.18 851 25.13 -0.9 30.3 47 -11 12.2
21:10 1022 30.18 851 25.13 -1.4 29.5 51 -10.4 13.3
21:15 1022 30.18 851 25.13 -1.9 28.6 50 -11 12.3
21:20 1022 30.18 851 25.13 -1.7 28.9 49 -11 12.3
21:25 1022 30.18 851 25.13 -1.8 28.7 52 -10.5 13.1
21:30 1022 30.18 851 25.13 -2 28.5 50 -11.1 11.9
21:35 1022 30.18 851 25.13 -1.6 29.1 49 -11.1 12
21:40 1022 30.18 851 25.13 -1.6 29.2 48 -11.1 12
21:45 1022 30.18 851 25.13 -1.4 29.5 47 -11.3 11.7
21:50 1022 30.18 851 25.13 -1.4 29.4 48 -11.1 11.9
21:55 1022 30.18 851 25.13 -1.9 28.7 52 -10.5 13
22:00 1022 30.18 851 25.13 -2.4 27.7 54 -10.5 13.1
22:05 1022 30.18 851 25.13 -2.7 27.1 54 -10.7 12.7
22:10 1022 30.18 851 25.13 -2.4 27.6 53 -10.7 12.7
22:15 1022 30.18 851 25.13 -2.4 27.6 58 -9.7 14.6
22:20 1022 30.18 851 25.13 -2.6 27.3 56 -10.3 13.4
22:25 1022 30.18 851 25.13 -2.4 27.6 56 -10 14.1
22:30 1022 30.18 851 25.13 -2.6 27.4 57 -10 13.9
22:35 1022 30.18 851 25.13 -2.9 26.8 57 -10.2 13.7
22:40 1022 30.18 851 25.13 -3 26.7 57 -10.3 13.4
22:45 1022 30.18 851 25.13 -2.8 26.9 55 -10.6 13
22:50 1022 30.18 851 25.13 -2.9 26.7 57 -10.2 13.6
22:55 1022 30.18 851 25.13 -3.1 26.4 58 -10.2 13.7
23:00 1022 30.18 851 25.13 -3.1 26.5 57 -10.3 13.4
23:05 1022 30.18 851 25.13 -3 26.6 58 -10.2 13.7
23:10 1022 30.18 851 25.13 -3 26.5 57 -10.4 13.2
23:15 1022 30.18 851 25.13 -3.2 26.3 56 -10.6 12.8
23:20 1022 30.18 851 25.13 -3.2 26.2 59 -10.2 13.6
23:25 1022 30.18 851 25.13 -3.4 25.8 59 -10.2 13.6
23:30 1022 30.18 851 25.13 -3.6 25.5 60 -10.3 13.5
23:35 1022 30.18 851 25.13 -3.9 25 60 -10.6 13
23:40 1022 30.18 851 25.13 -3.8 25.2 60 -10.6 13
23:45 1022 30.18 851 25.13 -3.7 25.3 59 -10.6 13
23:50 1022 30.18 851 25.13 -3.7 25.4 60 -10.4 13.2
23:55 1022 30.18 851 25.13 -3.8 25.1 60 -10.5 13.1
24:00 1022 30.18 851 25.13 -3.9 25 60 -10.5 13.1